sensor_id;sensor_type;location;lat;lon;timestamp;temperature;humidity
12922;DHT22;6528;48.086;16.282;2023-12-29T00:02:20;21.60;1.00
12922;DHT22;6528;48.086;16.282;2023-12-29T00:04:47;21.60;1.00
12922;DHT22;6528;48.086;16.282;2023-12-29T00:07:15;21.50;1.00
12922;DHT22;6528;48.086;16.282;2023-12-29T00:09:44;21.50;1.00
12922;DHT22;6528;48.086;16.282;2023-12-29T00:12:12;21.50;1.00
12922;DHT22;6528;48.086;16.282;2023-12-29T00:14:40;21.50;1.00
12922;DHT22;6528;48.086;16.282;2023-12-29T00:17:07;21.50;1.00
12922;DHT22;6528;48.086;16.282;2023-12-29T00:19:34;21.50;1.00
12922;DHT22;6528;48.086;16.282;2023-12-29T00:22:03;21.50;1.00
12922;DHT22;6528;48.086;16.282;2023-12-29T00:24:31;21.40;1.00
12922;DHT22;6528;48.086;16.282;2023-12-29T00:26:58;21.40;1.00
12922;DHT22;6528;48.086;16.282;2023-12-29T00:29:26;21.40;1.00
12922;DHT22;6528;48.086;16.282;2023-12-29T00:31:54;21.40;1.00
12922;DHT22;6528;48.086;16.282;2023-12-29T00:34:22;21.40;1.00
12922;DHT22;6528;48.086;16.282;2023-12-29T00:36:49;21.40;1.00
12922;DHT22;6528;48.086;16.282;2023-12-29T00:39:16;21.40;1.00
12922;DHT22;6528;48.086;16.282;2023-12-29T00:41:43;21.30;1.00
12922;DHT22;6528;48.086;16.282;2023-12-29T00:44:11;21.30;1.00
12922;DHT22;6528;48.086;16.282;2023-12-29T00:46:38;21.30;1.00
12922;DHT22;6528;48.086;16.282;2023-12-29T00:49:05;21.30;1.00
12922;DHT22;6528;48.086;16.282;2023-12-29T00:51:33;21.30;1.00
12922;DHT22;6528;48.086;16.282;2023-12-29T00:54:00;21.30;1.00
12922;DHT22;6528;48.086;16.282;2023-12-29T00:56:28;21.30;1.00
12922;DHT22;6528;48.086;16.282;2023-12-29T00:58:55;21.30;1.00
12922;DHT22;6528;48.086;16.282;2023-12-29T01:01:23;21.30;1.00
12922;DHT22;6528;48.086;16.282;2023-12-29T01:03:50;21.20;1.00
12922;DHT22;6528;48.086;16.282;2023-12-29T01:06:23;21.20;99.90
12922;DHT22;6528;48.086;16.282;2023-12-29T01:08:50;21.20;1.00
12922;DHT22;6528;48.086;16.282;2023-12-29T01:11:18;21.20;1.00
12922;DHT22;6528;48.086;16.282;2023-12-29T01:13:45;21.20;1.00
12922;DHT22;6528;48.086;16.282;2023-12-29T01:16:13;21.20;1.00
12922;DHT22;6528;48.086;16.282;2023-12-29T01:18:40;21.20;1.00
12922;DHT22;6528;48.086;16.282;2023-12-29T01:21:08;21.20;1.00
12922;DHT22;6528;48.086;16.282;2023-12-29T01:23:35;21.20;1.00
12922;DHT22;6528;48.086;16.282;2023-12-29T01:26:03;21.20;1.00
12922;DHT22;6528;48.086;16.282;2023-12-29T01:28:32;21.20;1.00
12922;DHT22;6528;48.086;16.282;2023-12-29T01:30:59;21.20;1.00
12922;DHT22;6528;48.086;16.282;2023-12-29T01:33:27;21.10;1.00
12922;DHT22;6528;48.086;16.282;2023-12-29T01:35:54;21.10;1.00
12922;DHT22;6528;48.086;16.282;2023-12-29T01:38:23;21.10;1.00
12922;DHT22;6528;48.086;16.282;2023-12-29T01:40:51;21.10;1.00
12922;DHT22;6528;48.086;16.282;2023-12-29T01:43:18;21.10;1.00
12922;DHT22;6528;48.086;16.282;2023-12-29T01:45:46;21.10;1.00
12922;DHT22;6528;48.086;16.282;2023-12-29T01:48:24;21.10;1.00
12922;DHT22;6528;48.086;16.282;2023-12-29T01:50:52;21.10;1.00
12922;DHT22;6528;48.086;16.282;2023-12-29T01:53:20;21.10;1.00
12922;DHT22;6528;48.086;16.282;2023-12-29T01:56:05;21.10;1.00
12922;DHT22;6528;48.086;16.282;2023-12-29T01:58:33;21.10;1.00
12922;DHT22;6528;48.086;16.282;2023-12-29T02:01:01;21.00;1.00
12922;DHT22;6528;48.086;16.282;2023-12-29T02:03:29;21.10;1.00
12922;DHT22;6528;48.086;16.282;2023-12-29T02:05:57;21.00;1.00
12922;DHT22;6528;48.086;16.282;2023-12-29T02:08:26;21.00;1.00
12922;DHT22;6528;48.086;16.282;2023-12-29T02:10:53;21.00;1.00
12922;DHT22;6528;48.086;16.282;2023-12-29T02:13:22;21.00;1.00
12922;DHT22;6528;48.086;16.282;2023-12-29T02:15:54;21.00;1.00
12922;DHT22;6528;48.086;16.282;2023-12-29T02:18:24;21.00;1.00
12922;DHT22;6528;48.086;16.282;2023-12-29T02:20:53;21.00;1.00
12922;DHT22;6528;48.086;16.282;2023-12-29T02:23:20;21.00;1.00
12922;DHT22;6528;48.086;16.282;2023-12-29T02:25:48;21.00;1.00
12922;DHT22;6528;48.086;16.282;2023-12-29T02:28:27;21.00;1.00
12922;DHT22;6528;48.086;16.282;2023-12-29T02:31:06;21.00;1.00
12922;DHT22;6528;48.086;16.282;2023-12-29T02:33:40;21.00;99.90
12922;DHT22;6528;48.086;16.282;2023-12-29T02:36:08;21.00;1.00
12922;DHT22;6528;48.086;16.282;2023-12-29T02:38:37;20.90;1.00
12922;DHT22;6528;48.086;16.282;2023-12-29T02:41:05;21.00;1.00
12922;DHT22;6528;48.086;16.282;2023-12-29T02:43:33;21.00;1.00
12922;DHT22;6528;48.086;16.282;2023-12-29T02:46:01;20.90;1.00
12922;DHT22;6528;48.086;16.282;2023-12-29T02:48:29;21.00;1.00
12922;DHT22;6528;48.086;16.282;2023-12-29T02:50:56;21.00;1.00
12922;DHT22;6528;48.086;16.282;2023-12-29T02:53:24;21.00;1.00
12922;DHT22;6528;48.086;16.282;2023-12-29T02:55:51;21.00;1.00
12922;DHT22;6528;48.086;16.282;2023-12-29T02:58:18;21.00;1.00
12922;DHT22;6528;48.086;16.282;2023-12-29T03:00:46;21.00;1.00
12922;DHT22;6528;48.086;16.282;2023-12-29T03:03:14;21.00;99.90
12922;DHT22;6528;48.086;16.282;2023-12-29T03:05:41;21.00;1.00
12922;DHT22;6528;48.086;16.282;2023-12-29T03:08:09;21.00;1.00
12922;DHT22;6528;48.086;16.282;2023-12-29T03:10:37;21.00;1.00
12922;DHT22;6528;48.086;16.282;2023-12-29T03:13:04;20.90;1.00
12922;DHT22;6528;48.086;16.282;2023-12-29T03:15:32;21.00;1.00
12922;DHT22;6528;48.086;16.282;2023-12-29T03:18:00;21.00;1.00
12922;DHT22;6528;48.086;16.282;2023-12-29T03:20:28;20.90;1.00
12922;DHT22;6528;48.086;16.282;2023-12-29T03:22:55;20.90;1.00
12922;DHT22;6528;48.086;16.282;2023-12-29T03:25:22;20.90;99.90
12922;DHT22;6528;48.086;16.282;2023-12-29T03:27:50;20.90;1.00
12922;DHT22;6528;48.086;16.282;2023-12-29T03:30:18;20.90;1.00
12922;DHT22;6528;48.086;16.282;2023-12-29T03:32:45;20.90;99.90
12922;DHT22;6528;48.086;16.282;2023-12-29T03:35:13;20.90;99.90
12922;DHT22;6528;48.086;16.282;2023-12-29T03:37:40;20.90;99.90
12922;DHT22;6528;48.086;16.282;2023-12-29T03:40:08;20.90;1.00
12922;DHT22;6528;48.086;16.282;2023-12-29T03:42:37;20.90;99.90
12922;DHT22;6528;48.086;16.282;2023-12-29T03:45:05;20.90;99.90
12922;DHT22;6528;48.086;16.282;2023-12-29T03:47:32;20.90;99.90
12922;DHT22;6528;48.086;16.282;2023-12-29T03:49:59;20.90;99.90
12922;DHT22;6528;48.086;16.282;2023-12-29T03:52:27;20.90;99.90
12922;DHT22;6528;48.086;16.282;2023-12-29T03:54:54;20.90;1.00
12922;DHT22;6528;48.086;16.282;2023-12-29T03:57:22;20.90;99.90
12922;DHT22;6528;48.086;16.282;2023-12-29T03:59:49;20.80;99.90
12922;DHT22;6528;48.086;16.282;2023-12-29T04:02:17;20.90;1.00
12922;DHT22;6528;48.086;16.282;2023-12-29T04:04:45;20.90;1.00
12922;DHT22;6528;48.086;16.282;2023-12-29T04:07:13;20.80;1.00
12922;DHT22;6528;48.086;16.282;2023-12-29T04:09:40;20.80;1.00
12922;DHT22;6528;48.086;16.282;2023-12-29T04:12:08;20.80;1.00
12922;DHT22;6528;48.086;16.282;2023-12-29T04:14:36;20.80;1.00
12922;DHT22;6528;48.086;16.282;2023-12-29T04:17:03;20.80;1.00
12922;DHT22;6528;48.086;16.282;2023-12-29T04:19:41;20.80;99.90
12922;DHT22;6528;48.086;16.282;2023-12-29T04:22:09;20.80;99.90
12922;DHT22;6528;48.086;16.282;2023-12-29T04:24:38;20.80;99.90
12922;DHT22;6528;48.086;16.282;2023-12-29T04:27:05;20.80;1.00
12922;DHT22;6528;48.086;16.282;2023-12-29T04:29:32;20.80;99.90
12922;DHT22;6528;48.086;16.282;2023-12-29T04:32:00;20.80;1.00
12922;DHT22;6528;48.086;16.282;2023-12-29T04:34:27;20.70;1.00
12922;DHT22;6528;48.086;16.282;2023-12-29T04:36:55;20.70;99.90
12922;DHT22;6528;48.086;16.282;2023-12-29T04:39:22;20.70;1.00
12922;DHT22;6528;48.086;16.282;2023-12-29T04:41:50;20.70;1.00
12922;DHT22;6528;48.086;16.282;2023-12-29T04:44:17;20.70;99.90
12922;DHT22;6528;48.086;16.282;2023-12-29T04:46:44;20.70;1.00
12922;DHT22;6528;48.086;16.282;2023-12-29T04:49:12;20.70;99.90
12922;DHT22;6528;48.086;16.282;2023-12-29T04:51:41;20.70;1.00
12922;DHT22;6528;48.086;16.282;2023-12-29T04:54:08;20.70;1.00
12922;DHT22;6528;48.086;16.282;2023-12-29T04:56:36;20.70;1.00
12922;DHT22;6528;48.086;16.282;2023-12-29T04:59:04;20.70;1.00
12922;DHT22;6528;48.086;16.282;2023-12-29T05:01:31;20.70;99.90
12922;DHT22;6528;48.086;16.282;2023-12-29T05:03:58;20.70;1.00
12922;DHT22;6528;48.086;16.282;2023-12-29T05:06:26;20.70;1.00
12922;DHT22;6528;48.086;16.282;2023-12-29T05:08:54;20.70;1.00
12922;DHT22;6528;48.086;16.282;2023-12-29T05:11:21;20.70;1.00
12922;DHT22;6528;48.086;16.282;2023-12-29T05:13:49;20.70;1.00
12922;DHT22;6528;48.086;16.282;2023-12-29T05:16:16;20.60;99.90
12922;DHT22;6528;48.086;16.282;2023-12-29T05:18:44;20.70;99.90
12922;DHT22;6528;48.086;16.282;2023-12-29T05:21:18;20.60;99.90
12922;DHT22;6528;48.086;16.282;2023-12-29T05:23:46;20.60;99.90
12922;DHT22;6528;48.086;16.282;2023-12-29T05:26:15;20.60;1.00
12922;DHT22;6528;48.086;16.282;2023-12-29T05:28:42;20.60;1.00
12922;DHT22;6528;48.086;16.282;2023-12-29T05:31:10;20.70;1.00
12922;DHT22;6528;48.086;16.282;2023-12-29T05:33:37;20.60;99.90
12922;DHT22;6528;48.086;16.282;2023-12-29T05:36:07;20.60;99.90
12922;DHT22;6528;48.086;16.282;2023-12-29T05:38:38;20.60;1.00
12922;DHT22;6528;48.086;16.282;2023-12-29T05:41:07;20.60;1.00
12922;DHT22;6528;48.086;16.282;2023-12-29T05:43:34;20.60;1.00
12922;DHT22;6528;48.086;16.282;2023-12-29T05:46:02;20.60;1.00
12922;DHT22;6528;48.086;16.282;2023-12-29T05:48:29;20.60;1.00
12922;DHT22;6528;48.086;16.282;2023-12-29T05:50:57;20.60;1.00
12922;DHT22;6528;48.086;16.282;2023-12-29T05:53:25;20.60;1.00
12922;DHT22;6528;48.086;16.282;2023-12-29T05:55:53;20.60;1.00
12922;DHT22;6528;48.086;16.282;2023-12-29T05:58:20;20.60;1.00
12922;DHT22;6528;48.086;16.282;2023-12-29T06:00:48;20.60;99.90
12922;DHT22;6528;48.086;16.282;2023-12-29T06:03:15;20.60;1.00
12922;DHT22;6528;48.086;16.282;2023-12-29T06:05:43;20.60;1.00
12922;DHT22;6528;48.086;16.282;2023-12-29T06:08:13;20.60;1.00
12922;DHT22;6528;48.086;16.282;2023-12-29T06:10:40;20.60;99.90
12922;DHT22;6528;48.086;16.282;2023-12-29T06:13:09;20.60;99.90
12922;DHT22;6528;48.086;16.282;2023-12-29T06:15:36;20.60;99.90
12922;DHT22;6528;48.086;16.282;2023-12-29T06:18:05;20.60;99.90
12922;DHT22;6528;48.086;16.282;2023-12-29T06:20:33;20.60;99.90
12922;DHT22;6528;48.086;16.282;2023-12-29T06:23:01;20.60;99.90
12922;DHT22;6528;48.086;16.282;2023-12-29T06:25:29;20.60;1.00
12922;DHT22;6528;48.086;16.282;2023-12-29T06:27:56;20.60;1.00
12922;DHT22;6528;48.086;16.282;2023-12-29T06:30:24;20.60;1.00
12922;DHT22;6528;48.086;16.282;2023-12-29T06:32:52;20.60;99.90
12922;DHT22;6528;48.086;16.282;2023-12-29T06:35:20;20.60;99.90
12922;DHT22;6528;48.086;16.282;2023-12-29T06:37:48;20.60;99.90
12922;DHT22;6528;48.086;16.282;2023-12-29T06:40:17;20.60;1.00
12922;DHT22;6528;48.086;16.282;2023-12-29T06:42:45;20.50;1.00
12922;DHT22;6528;48.086;16.282;2023-12-29T06:45:13;20.60;99.90
12922;DHT22;6528;48.086;16.282;2023-12-29T06:47:40;20.50;1.00
12922;DHT22;6528;48.086;16.282;2023-12-29T06:50:08;20.60;1.00
12922;DHT22;6528;48.086;16.282;2023-12-29T06:52:40;20.50;1.00
12922;DHT22;6528;48.086;16.282;2023-12-29T06:55:08;20.50;1.00
12922;DHT22;6528;48.086;16.282;2023-12-29T06:57:35;20.50;99.90
12922;DHT22;6528;48.086;16.282;2023-12-29T07:00:04;20.50;99.90
12922;DHT22;6528;48.086;16.282;2023-12-29T07:02:32;20.50;1.00
12922;DHT22;6528;48.086;16.282;2023-12-29T07:04:59;20.50;1.00
12922;DHT22;6528;48.086;16.282;2023-12-29T07:07:27;20.50;1.00
12922;DHT22;6528;48.086;16.282;2023-12-29T07:09:54;20.50;1.00
12922;DHT22;6528;48.086;16.282;2023-12-29T07:12:22;20.50;1.00
12922;DHT22;6528;48.086;16.282;2023-12-29T07:14:50;20.50;1.00
12922;DHT22;6528;48.086;16.282;2023-12-29T07:17:19;20.50;1.00
12922;DHT22;6528;48.086;16.282;2023-12-29T07:19:46;20.50;1.00
12922;DHT22;6528;48.086;16.282;2023-12-29T07:22:14;20.50;1.00
12922;DHT22;6528;48.086;16.282;2023-12-29T07:24:42;20.50;1.00
12922;DHT22;6528;48.086;16.282;2023-12-29T07:27:09;20.50;1.00
12922;DHT22;6528;48.086;16.282;2023-12-29T07:29:37;20.50;1.00
12922;DHT22;6528;48.086;16.282;2023-12-29T07:32:05;20.50;1.00
12922;DHT22;6528;48.086;16.282;2023-12-29T07:34:33;20.50;1.00
12922;DHT22;6528;48.086;16.282;2023-12-29T07:37:02;20.50;1.00
12922;DHT22;6528;48.086;16.282;2023-12-29T07:39:29;20.50;99.90
12922;DHT22;6528;48.086;16.282;2023-12-29T07:41:57;20.50;99.90
12922;DHT22;6528;48.086;16.282;2023-12-29T07:44:25;20.50;99.90
12922;DHT22;6528;48.086;16.282;2023-12-29T07:46:57;20.50;99.90
12922;DHT22;6528;48.086;16.282;2023-12-29T07:49:25;20.50;67.30
12922;DHT22;6528;48.086;16.282;2023-12-29T07:51:53;20.50;1.00
12922;DHT22;6528;48.086;16.282;2023-12-29T07:54:21;20.50;99.90
12922;DHT22;6528;48.086;16.282;2023-12-29T07:56:49;20.50;99.90
12922;DHT22;6528;48.086;16.282;2023-12-29T07:59:18;20.50;99.90
12922;DHT22;6528;48.086;16.282;2023-12-29T08:01:45;20.50;99.90
12922;DHT22;6528;48.086;16.282;2023-12-29T08:04:13;20.50;99.90
12922;DHT22;6528;48.086;16.282;2023-12-29T08:06:41;20.50;21.00
12922;DHT22;6528;48.086;16.282;2023-12-29T08:09:09;20.50;1.00
12922;DHT22;6528;48.086;16.282;2023-12-29T08:11:38;20.50;1.00
12922;DHT22;6528;48.086;16.282;2023-12-29T08:14:05;20.50;99.90
12922;DHT22;6528;48.086;16.282;2023-12-29T08:16:39;20.60;99.90
12922;DHT22;6528;48.086;16.282;2023-12-29T08:19:08;20.50;99.90
12922;DHT22;6528;48.086;16.282;2023-12-29T08:21:37;20.60;1.00
12922;DHT22;6528;48.086;16.282;2023-12-29T08:24:05;20.60;1.00
12922;DHT22;6528;48.086;16.282;2023-12-29T08:26:33;20.60;1.00
12922;DHT22;6528;48.086;16.282;2023-12-29T08:29:00;20.60;99.90
12922;DHT22;6528;48.086;16.282;2023-12-29T08:31:28;20.70;1.00
12922;DHT22;6528;48.086;16.282;2023-12-29T08:33:57;20.70;1.00
12922;DHT22;6528;48.086;16.282;2023-12-29T08:36:24;20.80;99.90
12922;DHT22;6528;48.086;16.282;2023-12-29T08:38:52;20.80;99.90
12922;DHT22;6528;48.086;16.282;2023-12-29T08:41:20;20.90;3.90
12922;DHT22;6528;48.086;16.282;2023-12-29T08:43:47;20.90;1.00
12922;DHT22;6528;48.086;16.282;2023-12-29T08:46:14;20.90;1.00
12922;DHT22;6528;48.086;16.282;2023-12-29T08:48:41;20.90;1.00
12922;DHT22;6528;48.086;16.282;2023-12-29T08:51:09;20.90;1.00
12922;DHT22;6528;48.086;16.282;2023-12-29T08:53:36;20.80;99.90
12922;DHT22;6528;48.086;16.282;2023-12-29T08:56:03;20.80;99.90
12922;DHT22;6528;48.086;16.282;2023-12-29T08:58:32;20.80;60.30
12922;DHT22;6528;48.086;16.282;2023-12-29T09:01:00;20.80;1.00
12922;DHT22;6528;48.086;16.282;2023-12-29T09:03:28;20.80;1.00
12922;DHT22;6528;48.086;16.282;2023-12-29T09:05:55;20.70;99.90
12922;DHT22;6528;48.086;16.282;2023-12-29T09:08:24;20.70;1.00
12922;DHT22;6528;48.086;16.282;2023-12-29T09:10:51;20.70;99.90
12922;DHT22;6528;48.086;16.282;2023-12-29T09:13:19;20.70;1.00
12922;DHT22;6528;48.086;16.282;2023-12-29T09:15:49;20.70;1.00
12922;DHT22;6528;48.086;16.282;2023-12-29T09:18:17;20.70;1.00
12922;DHT22;6528;48.086;16.282;2023-12-29T09:20:44;20.70;1.00
12922;DHT22;6528;48.086;16.282;2023-12-29T09:23:11;20.70;1.00
12922;DHT22;6528;48.086;16.282;2023-12-29T09:25:39;20.70;1.00
12922;DHT22;6528;48.086;16.282;2023-12-29T09:28:08;20.70;1.00
12922;DHT22;6528;48.086;16.282;2023-12-29T09:30:36;20.80;1.00
12922;DHT22;6528;48.086;16.282;2023-12-29T09:33:04;20.90;1.00
12922;DHT22;6528;48.086;16.282;2023-12-29T09:35:32;20.90;1.00
12922;DHT22;6528;48.086;16.282;2023-12-29T09:38:02;20.90;1.00
12922;DHT22;6528;48.086;16.282;2023-12-29T09:40:31;21.00;1.00
12922;DHT22;6528;48.086;16.282;2023-12-29T09:43:03;21.00;99.90
12922;DHT22;6528;48.086;16.282;2023-12-29T09:45:33;21.00;1.00
12922;DHT22;6528;48.086;16.282;2023-12-29T09:48:02;21.00;1.00
12922;DHT22;6528;48.086;16.282;2023-12-29T09:50:32;20.90;1.00
12922;DHT22;6528;48.086;16.282;2023-12-29T09:53:01;20.90;1.00
12922;DHT22;6528;48.086;16.282;2023-12-29T09:55:29;20.90;99.90
12922;DHT22;6528;48.086;16.282;2023-12-29T09:57:59;20.80;1.00
12922;DHT22;6528;48.086;16.282;2023-12-29T10:00:28;20.90;1.00
12922;DHT22;6528;48.086;16.282;2023-12-29T10:02:56;20.90;1.00
12922;DHT22;6528;48.086;16.282;2023-12-29T10:05:25;21.00;99.90
12922;DHT22;6528;48.086;16.282;2023-12-29T10:07:53;21.00;1.00
12922;DHT22;6528;48.086;16.282;2023-12-29T10:10:22;21.00;1.00
12922;DHT22;6528;48.086;16.282;2023-12-29T10:12:52;21.00;1.00
12922;DHT22;6528;48.086;16.282;2023-12-29T10:15:21;21.00;1.00
12922;DHT22;6528;48.086;16.282;2023-12-29T10:20:59;21.00;99.90
12922;DHT22;6528;48.086;16.282;2023-12-29T10:23:36;21.10;99.90
12922;DHT22;6528;48.086;16.282;2023-12-29T10:26:07;21.10;99.90
12922;DHT22;6528;48.086;16.282;2023-12-29T10:28:37;21.00;99.90
12922;DHT22;6528;48.086;16.282;2023-12-29T10:31:05;21.10;1.00
12922;DHT22;6528;48.086;16.282;2023-12-29T10:33:34;21.00;1.00
12922;DHT22;6528;48.086;16.282;2023-12-29T10:36:02;21.10;99.90
12922;DHT22;6528;48.086;16.282;2023-12-29T10:38:30;21.10;99.90
12922;DHT22;6528;48.086;16.282;2023-12-29T10:41:11;21.10;99.90
12922;DHT22;6528;48.086;16.282;2023-12-29T10:43:41;21.10;99.90
12922;DHT22;6528;48.086;16.282;2023-12-29T10:46:12;21.10;99.90
12922;DHT22;6528;48.086;16.282;2023-12-29T10:48:39;21.10;99.90
12922;DHT22;6528;48.086;16.282;2023-12-29T10:51:07;21.10;99.90
12922;DHT22;6528;48.086;16.282;2023-12-29T10:53:36;21.10;99.90
12922;DHT22;6528;48.086;16.282;2023-12-29T10:56:18;21.10;99.90
12922;DHT22;6528;48.086;16.282;2023-12-29T10:59:03;21.10;99.90
12922;DHT22;6528;48.086;16.282;2023-12-29T11:01:33;21.10;99.90
12922;DHT22;6528;48.086;16.282;2023-12-29T11:04:04;21.10;99.90
12922;DHT22;6528;48.086;16.282;2023-12-29T11:06:43;21.10;1.00
12922;DHT22;6528;48.086;16.282;2023-12-29T11:09:23;21.00;99.90
12922;DHT22;6528;48.086;16.282;2023-12-29T11:11:56;21.10;1.00
12922;DHT22;6528;48.086;16.282;2023-12-29T11:14:25;21.00;99.90
12922;DHT22;6528;48.086;16.282;2023-12-29T11:16:54;21.00;99.90
12922;DHT22;6528;48.086;16.282;2023-12-29T11:19:22;21.00;99.90
12922;DHT22;6528;48.086;16.282;2023-12-29T11:21:53;21.00;99.90
12922;DHT22;6528;48.086;16.282;2023-12-29T11:24:23;21.00;99.90
12922;DHT22;6528;48.086;16.282;2023-12-29T11:27:08;21.00;99.90
12922;DHT22;6528;48.086;16.282;2023-12-29T11:29:40;21.00;99.90
12922;DHT22;6528;48.086;16.282;2023-12-29T11:32:14;21.10;99.90
12922;DHT22;6528;48.086;16.282;2023-12-29T11:34:52;21.00;99.90
12922;DHT22;6528;48.086;16.282;2023-12-29T11:40:33;21.00;99.90
12922;DHT22;6528;48.086;16.282;2023-12-29T11:43:07;21.10;99.90
12922;DHT22;6528;48.086;16.282;2023-12-29T11:45:36;21.10;99.90
12922;DHT22;6528;48.086;16.282;2023-12-29T11:48:04;21.00;99.90
12922;DHT22;6528;48.086;16.282;2023-12-29T11:50:36;21.00;99.90
12922;DHT22;6528;48.086;16.282;2023-12-29T11:53:05;21.00;99.90
12922;DHT22;6528;48.086;16.282;2023-12-29T11:55:35;21.00;99.90
12922;DHT22;6528;48.086;16.282;2023-12-29T11:58:04;21.00;99.90
12922;DHT22;6528;48.086;16.282;2023-12-29T12:00:45;21.00;99.90
12922;DHT22;6528;48.086;16.282;2023-12-29T12:03:27;21.00;99.90
12922;DHT22;6528;48.086;16.282;2023-12-29T12:05:56;21.00;99.90
12922;DHT22;6528;48.086;16.282;2023-12-29T12:08:38;21.00;99.90
12922;DHT22;6528;48.086;16.282;2023-12-29T12:13:56;21.00;99.90
12922;DHT22;6528;48.086;16.282;2023-12-29T12:19:13;21.00;99.90
12922;DHT22;6528;48.086;16.282;2023-12-29T12:21:41;21.10;99.90
12922;DHT22;6528;48.086;16.282;2023-12-29T12:24:09;21.10;99.90
12922;DHT22;6528;48.086;16.282;2023-12-29T12:26:36;21.10;99.90
12922;DHT22;6528;48.086;16.282;2023-12-29T12:29:05;21.10;99.90
12922;DHT22;6528;48.086;16.282;2023-12-29T12:31:33;21.10;99.90
12922;DHT22;6528;48.086;16.282;2023-12-29T12:34:01;21.10;99.90
12922;DHT22;6528;48.086;16.282;2023-12-29T12:36:29;21.10;99.90
12922;DHT22;6528;48.086;16.282;2023-12-29T12:38:57;21.10;99.90
12922;DHT22;6528;48.086;16.282;2023-12-29T12:41:26;21.10;99.90
12922;DHT22;6528;48.086;16.282;2023-12-29T12:44:07;21.00;99.90
12922;DHT22;6528;48.086;16.282;2023-12-29T12:46:41;21.10;99.90
12922;DHT22;6528;48.086;16.282;2023-12-29T12:49:11;21.00;99.90
12922;DHT22;6528;48.086;16.282;2023-12-29T12:51:38;21.00;99.90
12922;DHT22;6528;48.086;16.282;2023-12-29T12:54:05;21.00;99.90
12922;DHT22;6528;48.086;16.282;2023-12-29T12:56:35;21.10;99.90
12922;DHT22;6528;48.086;16.282;2023-12-29T12:59:02;21.10;99.90
12922;DHT22;6528;48.086;16.282;2023-12-29T13:01:30;21.10;99.90
12922;DHT22;6528;48.086;16.282;2023-12-29T13:04:03;21.10;99.90
12922;DHT22;6528;48.086;16.282;2023-12-29T13:06:38;21.10;99.90
12922;DHT22;6528;48.086;16.282;2023-12-29T13:09:07;21.10;99.90
12922;DHT22;6528;48.086;16.282;2023-12-29T13:11:39;21.10;99.90
12922;DHT22;6528;48.086;16.282;2023-12-29T13:14:08;21.20;99.90
12922;DHT22;6528;48.086;16.282;2023-12-29T13:16:36;21.20;99.90
12922;DHT22;6528;48.086;16.282;2023-12-29T13:19:19;21.20;99.90
12922;DHT22;6528;48.086;16.282;2023-12-29T13:21:48;21.20;99.90
12922;DHT22;6528;48.086;16.282;2023-12-29T13:24:17;21.20;99.90
12922;DHT22;6528;48.086;16.282;2023-12-29T13:26:45;21.20;99.90
12922;DHT22;6528;48.086;16.282;2023-12-29T13:29:14;21.20;99.90
12922;DHT22;6528;48.086;16.282;2023-12-29T13:31:42;21.20;99.90
12922;DHT22;6528;48.086;16.282;2023-12-29T13:34:16;21.20;1.00
12922;DHT22;6528;48.086;16.282;2023-12-29T13:36:49;21.20;99.90
12922;DHT22;6528;48.086;16.282;2023-12-29T13:39:50;21.20;99.90
12922;DHT22;6528;48.086;16.282;2023-12-29T13:42:14;21.20;99.90
12922;DHT22;6528;48.086;16.282;2023-12-29T13:44:43;21.20;1.00
12922;DHT22;6528;48.086;16.282;2023-12-29T13:47:11;21.20;99.90
12922;DHT22;6528;48.086;16.282;2023-12-29T13:49:39;21.20;99.90
12922;DHT22;6528;48.086;16.282;2023-12-29T13:52:06;21.20;99.90
12922;DHT22;6528;48.086;16.282;2023-12-29T13:54:43;21.20;99.90
12922;DHT22;6528;48.086;16.282;2023-12-29T13:57:11;21.10;99.90
12922;DHT22;6528;48.086;16.282;2023-12-29T13:59:38;21.20;99.90
12922;DHT22;6528;48.086;16.282;2023-12-29T14:02:31;21.20;1.00
12922;DHT22;6528;48.086;16.282;2023-12-29T14:05:20;21.20;99.90
12922;DHT22;6528;48.086;16.282;2023-12-29T14:07:59;21.20;99.90
12922;DHT22;6528;48.086;16.282;2023-12-29T14:10:34;21.10;99.90
12922;DHT22;6528;48.086;16.282;2023-12-29T14:13:10;21.20;99.90
12922;DHT22;6528;48.086;16.282;2023-12-29T14:15:40;21.20;99.90
12922;DHT22;6528;48.086;16.282;2023-12-29T14:20:41;21.20;99.90
12922;DHT22;6528;48.086;16.282;2023-12-29T14:23:09;21.10;99.90
12922;DHT22;6528;48.086;16.282;2023-12-29T14:25:37;21.20;99.90
12922;DHT22;6528;48.086;16.282;2023-12-29T14:28:16;21.10;99.90
12922;DHT22;6528;48.086;16.282;2023-12-29T14:30:45;21.10;99.90
12922;DHT22;6528;48.086;16.282;2023-12-29T14:33:13;21.10;99.90
12922;DHT22;6528;48.086;16.282;2023-12-29T14:35:41;21.20;99.90
12922;DHT22;6528;48.086;16.282;2023-12-29T14:38:09;21.20;99.90
12922;DHT22;6528;48.086;16.282;2023-12-29T14:40:40;21.20;99.90
12922;DHT22;6528;48.086;16.282;2023-12-29T14:43:07;21.20;99.90
12922;DHT22;6528;48.086;16.282;2023-12-29T14:45:35;21.20;99.90
12922;DHT22;6528;48.086;16.282;2023-12-29T14:48:03;21.20;99.90
12922;DHT22;6528;48.086;16.282;2023-12-29T14:50:31;21.20;99.90
12922;DHT22;6528;48.086;16.282;2023-12-29T14:52:59;21.20;99.90
12922;DHT22;6528;48.086;16.282;2023-12-29T14:55:26;21.10;99.90
12922;DHT22;6528;48.086;16.282;2023-12-29T14:57:53;21.10;99.90
12922;DHT22;6528;48.086;16.282;2023-12-29T15:00:20;21.20;99.90
12922;DHT22;6528;48.086;16.282;2023-12-29T15:02:48;21.10;1.00
12922;DHT22;6528;48.086;16.282;2023-12-29T15:05:15;21.10;99.90
12922;DHT22;6528;48.086;16.282;2023-12-29T15:07:45;21.10;99.90
12922;DHT22;6528;48.086;16.282;2023-12-29T15:10:12;21.10;99.90
12922;DHT22;6528;48.086;16.282;2023-12-29T15:12:40;21.10;99.90
12922;DHT22;6528;48.086;16.282;2023-12-29T15:15:08;21.10;99.90
12922;DHT22;6528;48.086;16.282;2023-12-29T15:17:38;21.10;99.90
12922;DHT22;6528;48.086;16.282;2023-12-29T15:20:06;21.10;99.90
12922;DHT22;6528;48.086;16.282;2023-12-29T15:22:35;21.10;99.90
12922;DHT22;6528;48.086;16.282;2023-12-29T15:25:04;21.10;99.90
12922;DHT22;6528;48.086;16.282;2023-12-29T15:27:31;21.10;99.90
12922;DHT22;6528;48.086;16.282;2023-12-29T15:29:58;21.10;99.90
12922;DHT22;6528;48.086;16.282;2023-12-29T15:32:26;21.10;99.90
12922;DHT22;6528;48.086;16.282;2023-12-29T15:34:54;21.20;99.90
12922;DHT22;6528;48.086;16.282;2023-12-29T15:37:21;21.10;99.90
12922;DHT22;6528;48.086;16.282;2023-12-29T15:39:49;21.20;99.90
12922;DHT22;6528;48.086;16.282;2023-12-29T15:42:16;21.10;99.90
12922;DHT22;6528;48.086;16.282;2023-12-29T15:44:43;21.10;99.90
12922;DHT22;6528;48.086;16.282;2023-12-29T15:47:11;21.20;99.90
12922;DHT22;6528;48.086;16.282;2023-12-29T15:49:38;21.20;99.90
12922;DHT22;6528;48.086;16.282;2023-12-29T15:52:05;21.20;99.90
12922;DHT22;6528;48.086;16.282;2023-12-29T15:54:32;21.20;99.90
12922;DHT22;6528;48.086;16.282;2023-12-29T15:57:00;21.30;1.00
12922;DHT22;6528;48.086;16.282;2023-12-29T15:59:33;21.30;99.90
12922;DHT22;6528;48.086;16.282;2023-12-29T16:02:01;21.30;1.00
12922;DHT22;6528;48.086;16.282;2023-12-29T16:04:29;21.30;1.00